Latest Weather Observations for Jervois

IDD60801

Issued at 11:01 pm CST Saturday 1 August 2015 (issued every 30 minutes, with the page automatically refreshed every 10 minutes)

About weather observations | Map of weather stations | Latest weather observations for NT | Other Formats
Station Details ID: 015602 Name: JERVOIS Lat: -22.95 Lon: 136.14 Height: 328.0 m
Data from the previous 72 hours. | See also: Recent months at Jervois
Date/Time
CST
Temp
°C
App
Temp
°C
Dew
Point
Rel
Hum
%
Delta-T
°C
Wind Press
QNH
hPa
Press
MSL
hPa
Rain
since 9 am
mm
Dir
 
Spd
km/h
Gust
km/h
Spd
kts
Gust
kts
01/11:00pm 17.2 13.4 -1.0 29 7.8 NNW 9 11 5 6 1017.8 - 0.0
01/10:30pm 17.6 13.8 -0.6 29 7.9 N 9 11 5 6 1018.0 - 0.0
01/10:00pm 18.6 14.3 -1.3 26 8.6 N 11 11 6 6 1018.0 - 0.0
01/09:30pm 18.8 15.0 -0.9 26 8.6 NNW 9 11 5 6 1017.8 - 0.0
01/09:00pm 19.4 15.7 -0.1 27 8.7 N 9 11 5 6 1017.6 1017.2 0.0
01/08:30pm 19.6 15.8 -0.5 26 8.9 N 9 11 5 6 1017.5 - 0.0
01/08:00pm 19.7 16.0 -0.3 26 8.9 N 9 11 5 6 1017.2 - 0.0
01/07:30pm 21.5 17.9 0.3 24 9.7 N 9 9 5 5 1016.9 - 0.0
01/07:00pm 23.0 19.3 -0.1 21 10.6 N 9 11 5 6 1016.6 - 0.0
01/06:30pm 24.5 21.0 1.2 21 11.1 N 9 11 5 6 1016.3 - 0.0
01/06:00pm 27.2 23.3 -1.6 15 13.3 N 9 13 5 7 1016.0 1015.5 0.0
01/05:30pm 29.0 23.6 -4.5 11 14.9 NNW 15 20 8 11 1015.7 - 0.0
01/05:00pm 29.8 23.5 -5.9 9 15.6 NNW 19 28 10 15 1015.6 - 0.0
01/04:30pm 29.9 23.4 -6.2 9 15.7 NW 20 30 11 16 1015.5 - 0.0
01/04:00pm 30.3 24.1 -4.8 10 15.7 N 19 28 10 15 1015.5 - 0.0
01/03:30pm 30.3 23.6 -4.3 10 15.6 NW 22 32 12 17 1015.7 - 0.0
01/03:00pm 30.1 24.1 -3.3 11 15.3 NW 19 26 10 14 1016.1 1015.6 0.0
01/02:30pm 29.8 22.7 -4.2 10 15.3 N 24 32 13 17 1016.4 - 0.0
01/02:00pm 29.1 21.6 -4.8 10 15.0 NW 26 39 14 21 1016.7 - 0.0
01/01:30pm 29.4 23.3 -2.3 12 14.7 NNW 20 30 11 16 1017.0 - 0.0
01/01:00pm 29.1 22.3 -1.7 13 14.4 NNW 24 33 13 18 1017.6 - 0.0
01/12:30pm 28.4 21.6 -2.2 13 14.1 NNW 24 35 13 19 1018.4 - 0.0
01/12:00pm 27.7 21.0 -1.3 15 13.5 NNW 24 39 13 21 1019.0 1018.6 0.0
01/11:30am 27.2 20.1 -1.3 15 13.2 N 26 35 14 19 1019.7 - 0.0
01/11:00am 26.4 19.6 -1.5 16 12.8 NNW 24 39 13 21 1019.9 - 0.0
01/10:30am 25.2 17.6 -1.8 16 12.2 N 28 41 15 22 1020.2 - 0.0
01/10:00am 25.3 20.4 -0.3 18 11.9 N 15 22 8 12 1020.0 - 0.0
01/09:30am 22.0 17.9 -2.8 19 10.7 NNW 9 15 5 8 1020.0 - 0.0
01/09:00am 19.3 15.7 -3.6 21 9.5 NNW 6 11 3 6 1019.9 1019.4 0.0
01/08:30am 15.7 13.2 -4.4 25 7.9 CALM 0 6 0 3 1019.7 - 0.0
01/08:00am 13.8 9.8 -5.7 25 7.3 WNW 7 11 4 6 1019.5 - 0.0
01/07:30am 10.9 6.9 -6.1 30 6.1 WNW 7 9 4 5 1019.2 - 0.0
01/07:00am 8.6 4.8 -5.6 36 5.0 W 6 9 3 5 1019.0 - 0.0
01/06:30am 9.5 4.9 -7.5 29 5.8 WSW 9 11 5 6 1018.9 - 0.0
01/06:00am 13.5 8.3 -5.9 25 7.2 NNW 13 13 7 7 1018.5 1017.9 0.0
01/05:30am 11.4 6.9 -7.0 27 6.5 NNW 9 11 5 6 1018.2 - 0.0
01/05:00am 12.5 8.5 -5.2 28 6.6 N 7 9 4 5 1018.0 - 0.0
01/04:30am 13.3 8.6 -5.4 27 7.0 N 11 13 6 7 1018.1 - 0.0
01/04:00am 13.4 8.2 -6.1 25 7.2 N 13 15 7 8 1018.4 - 0.0
01/03:30am 12.8 8.0 -6.4 25 7.0 N 11 13 6 7 1018.7 - 0.0
01/03:00am 12.3 7.4 -7.0 25 6.9 N 11 13 6 7 1018.9 1018.4 0.0
01/02:30am 10.2 5.6 -7.6 28 6.1 NNW 9 13 5 7 1019.0 - 0.0
01/02:00am 10.8 6.5 -9.4 23 6.7 N 7 9 4 5 1019.2 - 0.0
01/01:30am 8.8 4.5 -8.5 28 5.7 N 7 9 4 5 1019.4 - 0.0
01/01:00am 9.1 6.2 -7.9 29 5.7 CALM 0 0 0 0 1019.5 - 0.0
01/12:30am 8.9 6.0 -8.3 29 5.7 CALM 0 0 0 0 1019.6 - 0.0
01/12:00am 9.6 6.8 -7.4 29 5.8 CALM 0 0 0 0 1019.9 1019.7 0.0
 
Date/Time
CST
Temp
°C
App
Temp
°C
Dew
Point
Rel
Hum
%
Delta-T
°C
Wind Press
QNH
hPa
Press
MSL
hPa
Rain
since 9 am
mm
Dir
 
Spd
km/h
Gust
km/h
Spd
kts
Gust
kts
31/11:30pm 10.5 7.6 -8.5 25 6.4 CALM 0 0 0 0 1020.2 - 0.0
31/11:00pm 11.7 8.8 -7.9 24 6.8 CALM 0 0 0 0 1020.3 - 0.0
31/10:30pm 12.2 9.3 -8.3 23 7.1 CALM 0 0 0 0 1020.2 - 0.0
31/10:00pm 12.6 9.0 -7.4 24 7.1 E 4 6 2 3 1020.3 - 0.0
31/09:30pm 13.4 9.4 -7.1 23 7.4 ESE 6 7 3 4 1020.2 - 0.0
31/09:00pm 14.0 10.1 -6.7 23 7.6 ESE 6 7 3 4 1020.1 1019.9 0.0
31/08:30pm 14.9 11.1 -5.7 23 7.8 ESE 6 7 3 4 1020.0 - 0.0
31/08:00pm 16.0 11.8 -7.7 19 8.7 E 7 9 4 5 1019.7 - 0.0
31/07:30pm 16.8 12.6 -7.8 18 9.1 E 7 7 4 4 1019.4 - 0.0
31/07:00pm 17.6 13.7 -6.2 19 9.2 E 6 6 3 3 1019.3 - 0.0
31/06:30pm 21.0 17.0 -5.7 16 10.8 E 7 11 4 6 1019.1 - 0.0
31/06:00pm 22.9 17.6 -11.7 9 12.7 E 11 15 6 8 1019.0 1018.8 0.0
31/05:30pm 24.7 19.3 -13.2 7 13.8 E 11 15 6 8 1019.0 - 0.0
31/05:00pm 25.4 20.4 -13.5 7 14.2 E 9 17 5 9 1019.0 - 0.0
31/04:30pm 25.5 20.0 -14.9 6 14.4 ESE 11 17 6 9 1018.9 - 0.0
31/04:00pm 25.6 20.5 -15.4 6 14.5 ENE 9 17 5 9 1018.9 - 0.0
31/03:30pm 25.7 20.3 -13.9 6 14.4 E 11 19 6 10 1019.1 - 0.0
31/03:00pm 25.5 20.1 -14.0 6 14.3 ESE 11 20 6 11 1019.3 1019.1 0.0
31/02:30pm 25.4 20.6 -10.2 9 13.8 ENE 9 17 5 9 1019.6 - 0.0
31/02:00pm 25.8 20.5 -11.7 7 14.2 ESE 11 20 6 11 1019.9 - 0.0
31/01:30pm 24.8 19.6 -11.1 8 13.6 ENE 11 19 6 10 1020.5 - 0.0
31/01:00pm 24.7 19.2 -9.3 10 13.3 SE 13 19 7 10 1021.2 - 0.0
31/12:30pm 23.7 18.6 -9.5 10 12.8 E 11 20 6 11 1021.8 - 0.0
31/12:00pm 23.0 17.4 -11.5 9 12.7 E 13 17 7 9 1022.4 1022.2 0.0
31/11:30am 23.1 17.1 -11.1 9 12.7 E 15 20 8 11 1022.9 - 0.0
31/11:00am 22.8 16.5 -10.0 10 12.4 ENE 17 26 9 14 1023.2 - 0.0
31/10:30am 21.4 16.0 -14.1 8 12.2 E 11 15 6 8 1023.6 - 0.0
31/10:00am 18.9 14.0 -12.6 11 10.9 E 9 15 5 8 1023.9 - 0.0
31/09:30am 17.4 14.4 -9.2 15 9.6 CALM 0 7 0 4 1023.8 - 0.0
31/09:00am 14.0 10.9 -10.8 17 8.3 CALM 0 0 0 0 1023.7 1023.6 0.0
31/08:30am 11.7 8.7 -9.6 21 7.1 CALM 0 0 0 0 1023.4 - 0.0
31/08:00am 8.9 5.0 -10.6 24 6.1 W 4 6 2 3 1022.9 - 0.0
31/07:30am 6.5 1.6 -12.7 24 5.5 WSW 9 11 5 6 1022.7 - 0.0
31/07:00am 3.9 - - - - WSW 7 7 4 4 1022.4 - 0.0
31/06:30am 3.8 - - - - W 7 7 4 4 1022.2 - 0.0
31/06:00am 3.7 - - - - CALM 0 0 0 0 1021.8 1021.6 0.0
31/05:30am 4.8 - - - - NW 7 9 4 5 1021.7 - 0.0
31/05:00am 4.1 - - - - NNW 2 7 1 4 1021.6 - 0.0
31/04:30am 3.8 - - - - CALM 0 0 0 0 1021.7 - 0.0
31/04:00am 4.4 - - - - N 6 7 3 4 1021.8 - 0.0
31/03:30am 4.6 - - - - E 2 7 1 4 1022.1 - 0.0
31/03:00am 5.5 2.4 -11.2 29 4.9 CALM 0 0 0 0 1022.3 1022.1 0.0
31/02:30am 5.8 2.3 -10.6 29 4.9 ESE 2 6 1 3 1022.4 - 0.0
31/02:00am 5.6 1.3 -11.0 29 4.9 S 6 9 3 5 1022.7 - 0.0
31/01:30am 5.8 1.5 -11.2 28 5.0 SSW 6 7 3 4 1023.0 - 0.0
31/01:00am 6.4 3.2 -11.6 26 5.3 CALM 0 0 0 0 1023.1 - 0.0
31/12:30am 7.5 4.1 -9.8 28 5.4 SSE 2 6 1 3 1023.3 - 0.0
31/12:00am 8.0 3.7 -10.9 25 5.8 SSE 6 7 3 4 1023.3 1023.2 0.0
 
Date/Time
CST
Temp
°C
App
Temp
°C
Dew
Point
Rel
Hum
%
Delta-T
°C
Wind Press
QNH
hPa
Press
MSL
hPa
Rain
since 9 am
mm
Dir
 
Spd
km/h
Gust
km/h
Spd
kts
Gust
kts
30/11:30pm 7.9 3.4 -11.2 24 5.8 SSE 7 9 4 5 1023.4 - 0.0
30/11:00pm 8.4 4.2 -10.6 25 5.9 SE 6 7 3 4 1023.5 - 0.0
30/10:30pm 8.8 4.5 -10.8 24 6.1 SSE 6 7 3 4 1023.5 - 0.0
30/10:00pm 10.3 6.8 -11.4 20 6.8 SSE 2 7 1 4 1023.4 - 0.0
30/09:30pm 10.8 7.0 -9.5 23 6.7 SSE 4 6 2 3 1023.4 - 0.0
30/09:00pm 11.1 6.8 -8.8 24 6.7 SSE 7 9 4 5 1023.4 1023.3 0.0
30/08:30pm 12.0 7.8 -7.3 25 6.8 SE 7 7 4 4 1023.1 - 0.0
30/08:00pm 13.1 8.8 -11.5 17 8.0 E 6 7 3 4 1022.8 - 0.0
30/07:30pm 13.7 9.7 -8.0 21 7.7 NE 6 6 3 3 1022.6 - 0.0
30/07:00pm 14.3 11.4 -7.6 21 7.9 CALM 0 0 0 0 1022.4 - 0.0
30/06:30pm 17.1 13.0 -8.8 16 9.4 SE 6 7 3 4 1022.3 - 0.0
30/06:00pm 21.1 17.1 -7.2 14 11.1 SE 6 9 3 5 1022.1 1021.9 0.0
30/05:30pm 22.7 18.2 -11.1 9 12.5 SE 7 9 4 5 1022.1 - 0.0
30/05:00pm 22.9 17.7 -16.6 6 13.2 ESE 9 13 5 7 1022.0 - 0.0
30/04:30pm 23.4 18.4 -13.1 8 13.1 SE 9 13 5 7 1022.0 - 0.0
30/04:00pm 23.4 18.9 -15.0 7 13.3 E 6 11 3 6 1021.9 - 0.0
30/03:30pm 23.6 18.4 -17.1 5 13.6 ENE 9 19 5 10 1022.0 - 0.0
30/03:00pm 23.0 17.5 -16.1 6 13.2 SSE 11 17 6 9 1022.3 1022.1 0.0
30/02:30pm 23.2 18.6 -13.1 8 13.0 E 7 13 4 7 1022.7 - 0.0
30/02:00pm 22.8 17.7 -16.1 6 13.1 ESE 9 15 5 8 1023.1 - 0.0
30/01:30pm 22.7 16.9 -14.6 7 13.0 SE 13 19 7 10 1023.6 - 0.0
30/01:00pm 23.0 18.1 -11.5 9 12.7 ESE 9 20 5 11 1023.9 - 0.0
30/12:30pm 22.6 17.1 -16.2 6 13.1 NNE 11 20 6 11 1024.6 - 0.0
30/12:00pm 21.4 16.1 -12.5 9 12.0 ENE 11 17 6 9 1025.3 1025.1 0.0
30/11:30am 20.6 15.3 -11.7 10 11.6 E 11 19 6 10 1025.8 - 0.0
30/11:00am 19.8 13.7 -13.2 9 11.4 ENE 15 20 8 11 1026.0 - 0.0
30/10:30am 17.9 13.6 -8.4 16 9.8 E 7 11 4 6 1026.3 - 0.0
30/10:00am 16.3 12.8 -6.5 20 8.6 E 4 9 2 5 1026.7 - 0.0
30/09:30am 13.9 10.8 -6.1 24 7.4 S 2 9 1 5 1026.7 - 0.0
30/09:00am 10.9 6.9 -7.7 26 6.4 WSW 6 7 3 4 1026.3 1026.2 0.0
30/08:30am 8.3 4.0 -8.6 29 5.5 WSW 7 9 4 5 1025.9 - 0.0
30/08:00am 6.4 2.1 -8.9 32 4.8 W 7 11 4 6 1025.7 - 0.0
30/07:30am 3.7 - - - - W 6 6 3 3 1025.4 - 0.0
30/07:00am 3.2 - - - - W 6 7 3 4 1025.1 - 0.0
30/06:30am 3.6 - - - - WSW 9 11 5 6 1025.0 - 0.0
30/06:00am 3.0 - - - - SW 9 13 5 7 1024.8 1024.7 0.0
30/05:30am 2.4 - - - - S 2 7 1 4 1024.7 - 0.0
30/05:00am 3.2 - - - - CALM 0 0 0 0 1024.4 - 0.0
30/04:30am 3.8 - - - - SE 6 7 3 4 1024.7 - 0.0
30/04:00am 4.1 0.1 -7.7 42 3.7 SSE 6 7 3 4 1024.8 - 0.0
30/03:30am 5.3 1.3 -7.5 39 4.1 SSE 6 7 3 4 1024.8 - 0.0
30/03:00am 7.0 2.4 -7.7 34 4.8 SSE 9 15 5 8 1024.9 1024.7 0.0
30/02:30am 5.3 0.6 -9.0 35 4.4 S 9 11 5 6 1025.1 - 0.0
30/02:00am 4.2 - - - - S 7 9 4 5 1025.3 - 0.0
30/01:30am 4.8 0.7 -8.4 38 4.1 SSE 6 7 3 4 1025.5 - 0.0
30/01:00am 5.9 1.9 -7.8 36 4.4 SSE 6 7 3 4 1025.6 - 0.0
30/12:30am 6.8 2.8 -7.6 35 4.7 SSE 6 7 3 4 1025.8 - 0.0
30/12:00am 8.8 4.7 -6.6 33 5.3 SE 7 7 4 4 1025.9 1025.9 0.0
 
Date/Time
CST
Temp
°C
App
Temp
°C
Dew
Point
Rel
Hum
%
Delta-T
°C
Wind Press
QNH
hPa
Press
MSL
hPa
Rain
since 9 am
mm
Dir
 
Spd
km/h
Gust
km/h
Spd
kts
Gust
kts
29/11:30pm 8.9 5.0 -5.1 37 5.0 SSE 7 9 4 5 1026.0 - 0.0

Other Formats:

Comma delimited format used in spreadsheet applications
http://www.bom.gov.au/fwo/IDD60801/IDD60801.94327.axf

JavaScript Object Notation format (JSON) in row-major order
http://www.bom.gov.au/fwo/IDD60801/IDD60801.94327.json